Time;durP1;ratioP1;P1;durP2;ratioP2;P2;SDS_P1;SDS_P2;PMS_P1;PMS_P2;Temp;Humidity;BMP_temperature;BMP_pressure;BME280_temperature;BME280_humidity;BME280_pressure;Samples;Min_cycle;Max_cycle;Signal;HPM_P1;HPM_P2
2023/06/29 00:03:27;;;;;;;6.80;4.32;;;;;;;23.90;42.88;101556.66;16109439;19;130458;-47
2023/06/29 00:08:49;;;;;;;4.78;4.00;;;;;;;23.88;42.95;101550.50;16106878;19;130662;-41
2023/06/29 00:14:11;;;;;;;4.78;3.83;;;;;;;23.88;43.14;101550.50;16109849;19;129542;-43
2023/06/29 00:19:33;;;;;;;6.13;4.20;;;;;;;23.86;43.28;101539.59;16109970;19;130790;-43
2023/06/29 00:24:56;;;;;;;4.95;3.92;;;;;;;23.87;43.07;101540.41;16110923;19;133010;-41
2023/06/29 00:30:19;;;;;;;4.80;3.80;;;;;;;23.85;42.92;101543.50;16103273;19;129978;-43
2023/06/29 00:35:41;;;;;;;5.35;3.38;;;;;;;23.85;43.09;101537.91;16105966;19;130802;-45
2023/06/29 00:41:03;;;;;;;4.32;3.50;;;;;;;23.84;43.10;101536.22;16101313;19;131009;-44
2023/06/29 00:46:25;;;;;;;4.55;3.70;;;;;;;23.83;42.86;101540.13;16094922;19;132259;-43
2023/06/29 00:51:50;;;;;;;5.40;3.78;;;;;;;23.83;42.84;101537.31;16106646;19;129996;-41
2023/06/29 00:57:12;;;;;;;7.47;4.20;;;;;;;23.83;42.93;101520.56;16107040;19;130337;-42
2023/06/29 01:02:39;;;;;;;6.65;4.03;;;;;;;23.82;43.20;101516.91;16108585;19;130077;-40
2023/06/29 01:08:11;;;;;;;4.97;3.72;;;;;;;23.82;43.31;101508.53;16106034;19;129528;-42
2023/06/29 01:13:33;;;;;;;6.13;4.10;;;;;;;23.82;42.96;101510.50;16103177;19;130690;-42
2023/06/29 01:18:56;;;;;;;5.85;3.58;;;;;;;23.81;43.01;101504.06;16104365;19;131293;-42
2023/06/29 01:24:20;;;;;;;4.78;3.72;;;;;;;23.80;42.78;101495.94;16105225;19;129736;-42
2023/06/29 01:29:42;;;;;;;5.72;3.85;;;;;;;23.80;42.91;101507.13;16097827;19;129696;-49
2023/06/29 01:35:07;;;;;;;4.03;3.63;;;;;;;23.79;43.42;101497.03;16102178;19;129568;-45
2023/06/29 01:40:30;;;;;;;6.15;3.63;;;;;;;23.79;43.41;101499.84;16100776;19;129279;-47
2023/06/29 01:45:52;;;;;;;6.10;3.90;;;;;;;23.78;43.50;101492.56;16102207;19;130146;-49
2023/06/29 01:51:14;;;;;;;4.85;3.50;;;;;;;23.77;43.08;101491.75;16106082;19;129973;-48
2023/06/29 01:56:36;;;;;;;4.70;3.80;;;;;;;23.77;43.19;101485.28;16116955;19;130817;-47
2023/06/29 02:01:59;;;;;;;5.55;3.60;;;;;;;23.77;43.16;101479.72;16116768;19;130230;-48
2023/06/29 02:07:20;;;;;;;4.63;3.67;;;;;;;23.76;43.24;101476.09;16115948;19;129831;-49
2023/06/29 02:12:43;;;;;;;6.90;3.30;;;;;;;23.76;43.41;101476.09;16115805;19;131012;-49
2023/06/29 02:18:04;;;;;;;5.75;4.22;;;;;;;23.75;43.40;101476.38;16111484;19;130895;-41
2023/06/29 02:23:27;;;;;;;4.88;3.80;;;;;;;23.75;43.11;101465.19;16117691;19;129910;-45
2023/06/29 02:28:49;;;;;;;5.35;3.83;;;;;;;23.73;43.24;101464.63;16108685;19;131143;-42
2023/06/29 02:34:11;;;;;;;6.07;4.05;;;;;;;23.73;42.91;101456.22;16110180;19;131511;-40
2023/06/29 02:39:33;;;;;;;8.60;3.92;;;;;;;23.74;43.22;101452.31;16112169;19;130579;-42
2023/06/29 02:44:55;;;;;;;7.05;3.50;;;;;;;23.73;42.84;101450.66;16116253;19;134771;-40
2023/06/29 02:50:16;;;;;;;7.20;3.80;;;;;;;23.72;43.27;101454.53;16104114;19;130761;-40
2023/06/29 02:55:38;;;;;;;6.13;3.88;;;;;;;23.72;43.16;101449.78;16116946;19;130616;-44
2023/06/29 03:01:00;;;;;;;5.78;3.90;;;;;;;23.73;43.33;101461.81;16109229;19;131032;-43
2023/06/29 03:06:22;;;;;;;5.55;3.67;;;;;;;23.72;43.27;101448.97;16108637;19;131446;-42
2023/06/29 03:11:44;;;;;;;7.15;3.95;;;;;;;23.72;43.16;101448.97;16112831;19;131748;-41
2023/06/29 03:17:09;;;;;;;4.68;3.53;;;;;;;23.73;43.26;101451.47;16115291;19;129932;-45
2023/06/29 03:22:32;;;;;;;4.63;3.40;;;;;;;23.71;42.86;101453.69;16109374;19;132537;-46
2023/06/29 03:27:56;;;;;;;6.60;3.53;;;;;;;23.70;43.06;101451.16;16108187;19;130731;-42
2023/06/29 03:33:18;;;;;;;5.78;3.55;;;;;;;23.69;43.32;101449.50;16113617;19;131584;-41
2023/06/29 03:38:40;;;;;;;5.78;3.17;;;;;;;23.68;42.89;101447.81;16112676;19;131139;-46
2023/06/29 03:44:01;;;;;;;4.60;3.55;;;;;;;23.68;43.22;101442.22;16109051;19;129740;-41
2023/06/29 03:49:23;;;;;;;3.80;3.22;;;;;;;23.68;43.29;101447.81;16109610;19;129866;-40
2023/06/29 03:54:45;;;;;;;5.20;3.25;;;;;;;23.68;43.59;101443.06;16106105;19;130548;-42
2023/06/29 04:00:08;;;;;;;4.65;3.25;;;;;;;23.65;43.16;101433.25;16110769;19;129730;-42
2023/06/29 04:05:30;;;;;;;4.70;3.35;;;;;;;23.67;43.26;101441.38;16110770;19;130503;-40
2023/06/29 04:10:52;;;;;;;7.00;3.53;;;;;;;23.66;43.20;101436.91;16111635;19;129944;-41
2023/06/29 04:16:14;;;;;;;5.25;3.63;;;;;;;23.66;43.60;101428.53;16112346;19;131424;-47
2023/06/29 04:21:36;;;;;;;4.38;3.03;;;;;;;23.64;43.26;101425.97;16105967;19;129987;-44
2023/06/29 04:26:57;;;;;;;6.72;3.38;;;;;;;23.64;42.92;101425.97;16106603;19;130464;-41
2023/06/29 04:32:19;;;;;;;4.97;3.33;;;;;;;23.63;43.30;101418.72;16108876;19;129865;-43
2023/06/29 04:37:41;;;;;;;4.15;3.30;;;;;;;23.63;43.15;101421.50;16106391;19;130101;-41
2023/06/29 04:43:03;;;;;;;3.40;3.10;;;;;;;23.62;42.98;101414.25;16108815;19;130913;-42
2023/06/29 04:48:29;;;;;;;3.85;3.30;;;;;;;23.62;43.31;101417.06;16106033;19;129996;-45
2023/06/29 04:53:51;;;;;;;4.50;3.47;;;;;;;23.61;43.26;101418.16;16106463;19;131208;-46
2023/06/29 04:59:13;;;;;;;5.95;2.90;;;;;;;23.62;43.51;101414.25;16110347;19;129199;-44
2023/06/29 05:04:36;;;;;;;4.75;3.45;;;;;;;23.61;43.22;101423.75;16107196;19;129810;-45
2023/06/29 05:09:58;;;;;;;5.10;3.42;;;;;;;23.61;43.49;101420.97;16103967;19;135105;-43
2023/06/29 05:15:20;;;;;;;5.40;3.42;;;;;;;23.60;43.16;101413.69;16107398;19;131435;-41
2023/06/29 05:20:46;;;;;;;4.03;3.58;;;;;;;23.59;43.31;101413.94;16104481;19;130897;-46
2023/06/29 05:26:08;;;;;;;9.57;5.57;;;;;;;23.58;43.24;101415.00;16107192;19;130698;-44
2023/06/29 05:31:30;;;;;;;10.10;6.65;;;;;;;23.56;43.60;101411.66;16123612;19;129567;-45
2023/06/29 05:36:52;;;;;;;11.10;7.90;;;;;;;23.56;43.31;101406.09;16122996;19;129637;-41
2023/06/29 05:42:14;;;;;;;11.93;8.63;;;;;;;23.55;43.43;101410.00;16121523;19;130502;-44
2023/06/29 05:47:36;;;;;;;12.13;9.23;;;;;;;23.54;43.46;101405.50;16119945;19;130964;-42
2023/06/29 05:52:58;;;;;;;11.77;9.27;;;;;;;23.54;43.67;101406.34;16120432;19;129402;-40
2023/06/29 05:58:22;;;;;;;16.95;11.18;;;;;;;23.60;43.94;101408.09;16119209;19;129744;-47
2023/06/29 06:03:44;;;;;;;14.77;11.02;;;;;;;23.64;43.55;101403.63;16116470;19;131076;-43
2023/06/29 06:09:06;;;;;;;15.20;10.95;;;;;;;23.71;43.46;101406.19;16121273;19;130662;-43
2023/06/29 06:14:28;;;;;;;16.45;11.63;;;;;;;23.74;43.26;101404.84;16119133;19;129506;-44
2023/06/29 06:19:50;;;;;;;20.65;10.90;;;;;;;23.75;43.52;101409.31;16119884;19;135526;-43
2023/06/29 06:25:14;;;;;;;17.80;11.80;;;;;;;23.75;43.84;101403.72;16120468;19;131373;-43
2023/06/29 06:30:36;;;;;;;18.40;11.90;;;;;;;23.75;43.17;101410.16;16113518;19;131371;-45
2023/06/29 06:35:59;;;;;;;15.32;10.80;;;;;;;23.74;43.43;101402.03;16116988;19;130355;-45
2023/06/29 06:41:21;;;;;;;15.40;10.73;;;;;;;23.75;43.41;101403.72;16117434;19;129847;-44
2023/06/29 06:46:43;;;;;;;15.65;11.05;;;;;;;23.75;43.54;101406.53;16113470;19;130903;-50
2023/06/29 06:52:05;;;;;;;14.50;10.18;;;;;;;23.76;43.29;101409.03;16117438;19;131060;-49
2023/06/29 06:57:27;;;;;;;13.38;11.15;;;;;;;23.76;43.41;101405.38;16115308;19;130912;-49
2023/06/29 07:02:49;;;;;;;18.67;10.98;;;;;;;23.75;43.36;101409.31;16117748;19;129533;-49
2023/06/29 07:08:11;;;;;;;15.43;12.20;;;;;;;23.74;43.32;101405.66;16117147;19;130601;-45
2023/06/29 07:13:34;;;;;;;14.90;10.95;;;;;;;23.74;43.64;101402.03;16118564;19;129767;-47
2023/06/29 07:19:08;;;;;;;14.57;10.85;;;;;;;23.77;43.55;101407.06;16114670;19;130094;-49
2023/06/29 07:24:32;;;;;;;14.63;11.10;;;;;;;23.75;43.20;101409.31;16116624;19;129212;-44
2023/06/29 07:29:55;;;;;;;14.23;10.50;;;;;;;23.75;43.27;101404.56;16113888;19;130793;-45
2023/06/29 07:35:17;;;;;;;15.27;10.43;;;;;;;23.75;43.34;101403.72;16115222;19;131226;-44
2023/06/29 07:40:39;;;;;;;13.82;10.18;;;;;;;23.74;43.37;101396.47;16116268;19;131604;-45
2023/06/29 07:46:03;;;;;;;15.50;10.07;;;;;;;23.75;43.41;101406.53;16115750;19;130061;-41
2023/06/29 07:51:31;;;;;;;13.03;9.90;;;;;;;23.73;43.42;101398.41;16110262;19;130325;-45
2023/06/29 07:56:53;;;;;;;14.20;9.32;;;;;;;23.75;43.37;101400.94;16115796;19;129680;-42
2023/06/29 08:02:19;;;;;;;12.50;9.75;;;;;;;23.75;43.35;101395.34;16111447;19;130757;-43
2023/06/29 08:07:41;;;;;;;16.30;10.10;;;;;;;23.76;42.96;101383.03;16111410;19;129437;-42
2023/06/29 08:13:04;;;;;;;11.77;9.63;;;;;;;23.77;43.23;101384.72;16113813;19;129627;-43
2023/06/29 08:18:26;;;;;;;14.50;10.63;;;;;;;23.78;43.35;101386.41;16111938;19;130672;-43
2023/06/29 08:23:50;;;;;;;13.77;10.32;;;;;;;23.78;43.23;101378.03;16109764;19;130101;-42
2023/06/29 08:29:12;;;;;;;14.68;10.30;;;;;;;23.79;43.61;101382.50;16111266;19;131799;-43
2023/06/29 08:34:34;;;;;;;12.70;10.48;;;;;;;23.80;43.33;101379.47;16109234;19;129806;-41
2023/06/29 08:39:57;;;;;;;14.80;11.10;;;;;;;23.81;43.17;101371.91;16108407;19;129332;-43
2023/06/29 08:45:19;;;;;;;15.55;10.68;;;;;;;23.82;43.19;101379.19;16108404;19;130002;-44
2023/06/29 08:50:48;;;;;;;14.70;11.57;;;;;;;23.84;43.19;101378.88;16108668;19;130814;-43
2023/06/29 08:56:12;;;;;;;16.48;11.23;;;;;;;23.84;43.23;101379.75;16108670;19;129690;-40
2023/06/29 09:01:34;;;;;;;14.73;11.63;;;;;;;23.86;43.51;101376.66;16116370;19;129804;-42
2023/06/29 09:06:56;;;;;;;14.63;11.43;;;;;;;23.86;42.78;101380.31;16122474;19;130360;-42
2023/06/29 09:12:19;;;;;;;13.75;9.90;;;;;;;23.86;42.97;101377.53;16125019;19;129444;-41
2023/06/29 09:17:45;;;;;;;14.73;11.68;;;;;;;23.89;43.41;101371.38;16120126;19;130174;-44
2023/06/29 09:23:08;;;;;;;13.90;11.15;;;;;;;23.90;43.13;101361.88;16122146;19;131334;-44
2023/06/29 09:28:35;;;;;;;15.30;11.23;;;;;;;23.92;43.18;101368.03;16123876;19;130527;-45
2023/06/29 09:34:15;;;;;;;14.38;10.50;;;;;;;23.93;42.78;101361.34;16121430;19;130290;-44
2023/06/29 09:39:37;;;;;;;13.52;10.77;;;;;;;23.92;43.00;101367.22;16119269;19;130514;-43
2023/06/29 09:45:04;;;;;;;16.67;11.68;;;;;;;23.93;42.91;101375.31;16114507;19;129877;-42
2023/06/29 09:50:26;;;;;;;15.40;12.85;;;;;;;23.92;42.88;101373.63;16114929;19;129535;-42
2023/06/29 09:55:49;;;;;;;16.83;12.48;;;;;;;23.93;42.90;101366.09;16117337;19;129595;-42
2023/06/29 10:01:11;;;;;;;16.38;11.52;;;;;;;23.94;42.84;101367.75;16118249;19;129732;-42
2023/06/29 10:06:46;;;;;;;14.40;11.15;;;;;;;23.95;42.90;101370.31;16115581;19;131201;-41
2023/06/29 10:12:11;;;;;;;15.75;12.82;;;;;;;23.94;42.78;101371.41;16114004;19;131303;-40
2023/06/29 10:18:02;;;;;;;16.73;12.68;;;;;;;23.95;42.73;101364.72;16118898;19;130922;-40
2023/06/29 10:23:25;;;;;;;20.65;16.63;;;;;;;23.95;42.77;101364.72;16118504;19;129632;-45
2023/06/29 10:28:47;;;;;;;19.77;15.70;;;;;;;23.99;42.68;101366.97;16115540;19;132527;-42
2023/06/29 10:34:10;;;;;;;19.00;14.55;;;;;;;23.99;42.65;101366.97;16112823;19;130567;-40
2023/06/29 10:39:38;;;;;;;21.05;15.75;;;;;;;24.00;42.60;101372.28;16116981;19;129105;-43
2023/06/29 10:45:02;;;;;;;20.02;14.05;;;;;;;24.00;42.78;101360.28;16116226;19;129286;-42
2023/06/29 10:50:45;;;;;;;28.83;20.08;;;;;;;24.04;43.11;101362.25;16113443;19;131064;-41
2023/06/29 10:56:29;;;;;;;38.30;22.67;;;;;;;24.04;42.92;101355.78;16114004;19;129444;-42
2023/06/29 11:01:51;;;;;;;37.22;24.90;;;;;;;24.03;42.99;101354.97;16116862;19;131087;-45
2023/06/29 11:07:14;;;;;;;32.15;23.48;;;;;;;24.06;43.08;101347.97;16117071;19;130287;-42
2023/06/29 11:12:37;;;;;;;37.67;25.45;;;;;;;24.10;43.23;101349.94;16110286;19;130745;-41
2023/06/29 11:18:02;;;;;;;42.60;25.42;;;;;;;24.13;43.00;101342.97;16113556;19;129907;-43
2023/06/29 11:23:26;;;;;;;41.33;25.23;;;;;;;24.16;43.13;101336.00;16108511;19;129476;-44
2023/06/29 11:28:49;;;;;;;45.63;25.13;;;;;;;24.17;42.68;101341.31;16112428;19;129092;-43
2023/06/29 11:34:12;;;;;;;36.53;24.95;;;;;;;24.20;42.86;101335.19;16113564;19;131458;-42
2023/06/29 11:39:34;;;;;;;35.45;24.75;;;;;;;24.21;42.91;101322.88;16114473;19;130590;-40
2023/06/29 11:45:04;;;;;;;36.95;25.85;;;;;;;24.24;42.84;101319.59;16109778;19;130195;-42
2023/06/29 11:50:30;;;;;;;35.75;26.08;;;;;;;24.25;42.76;101321.22;16112550;19;131359;-44
2023/06/29 11:55:53;;;;;;;37.53;26.45;;;;;;;24.26;42.61;101313.69;16115637;19;130696;-46
2023/06/29 12:01:15;;;;;;;41.95;28.85;;;;;;;24.28;42.60;101317.06;16112037;19;130190;-47
2023/06/29 12:06:49;;;;;;;36.95;26.70;;;;;;;24.30;42.68;101305.59;16108661;19;130757;-43
2023/06/29 12:12:11;;;;;;;37.13;27.23;;;;;;;24.28;42.33;101314.28;16112642;19;130321;-40
2023/06/29 12:17:34;;;;;;;37.28;27.73;;;;;;;24.27;42.26;101307.00;16107033;19;129613;-47
2023/06/29 12:23:01;;;;;;;35.45;26.95;;;;;;;24.24;42.11;101301.91;16112154;19;130812;-42
2023/06/29 12:28:23;;;;;;;40.17;27.53;;;;;;;24.22;42.80;101301.34;16112040;19;131308;-43
2023/06/29 12:33:45;;;;;;;34.33;25.70;;;;;;;24.21;42.59;101299.66;16109258;19;129695;-40
2023/06/29 12:39:07;;;;;;;36.88;25.63;;;;;;;24.20;42.49;101293.25;16112051;19;129752;-44
2023/06/29 12:44:29;;;;;;;36.90;26.02;;;;;;;24.20;42.37;101303.56;16109680;19;129799;-41
2023/06/29 12:49:51;;;;;;;40.95;27.55;;;;;;;24.21;42.44;101294.06;16096589;19;131994;-44
2023/06/29 12:55:16;;;;;;;41.42;27.65;;;;;;;24.21;42.19;101299.66;16110919;19;132337;-44
2023/06/29 13:00:38;;;;;;;33.88;25.33;;;;;;;24.23;42.52;101300.22;16106667;19;129520;-47
2023/06/29 13:06:00;;;;;;;40.65;27.08;;;;;;;24.25;42.20;101293.28;16109890;19;130380;-43
2023/06/29 13:11:22;;;;;;;37.20;25.58;;;;;;;24.26;42.25;101294.97;16111975;19;129786;-42
2023/06/29 13:16:44;;;;;;;35.92;27.42;;;;;;;24.26;42.32;101308.94;16108806;19;130239;-45
2023/06/29 13:22:06;;;;;;;35.78;26.15;;;;;;;24.24;42.42;101310.31;16108864;19;129732;-46
2023/06/29 13:27:29;;;;;;;36.03;24.15;;;;;;;24.20;42.42;101301.63;16109127;19;129513;-45
2023/06/29 13:32:51;;;;;;;32.60;23.85;;;;;;;24.19;42.64;101299.94;16107808;19;130190;-41
2023/06/29 13:38:12;;;;;;;28.80;21.65;;;;;;;24.16;42.80;101308.06;16111112;19;129617;-49
2023/06/29 13:43:34;;;;;;;31.55;22.58;;;;;;;24.15;42.72;101317.56;16093851;19;130818;-41
2023/06/29 13:48:57;;;;;;;28.48;21.38;;;;;;;24.11;42.97;101311.69;16107380;19;130938;-44
2023/06/29 13:54:19;;;;;;;28.08;21.13;;;;;;;24.08;43.02;101315.00;16121792;19;129625;-48
2023/06/29 13:59:40;;;;;;;26.13;19.30;;;;;;;24.07;43.04;101304.94;16121259;19;129677;-44
2023/06/29 14:05:03;;;;;;;24.08;18.42;;;;;;;24.07;42.74;101310.53;16122216;19;130826;-45
2023/06/29 14:10:25;;;;;;;27.30;19.23;;;;;;;24.06;43.26;101308.84;16122937;19;130811;-44
2023/06/29 14:15:47;;;;;;;23.23;17.30;;;;;;;24.06;43.58;101297.69;16119129;19;129683;-44
2023/06/29 14:21:09;;;;;;;22.60;16.85;;;;;;;24.06;43.21;101297.69;16118597;19;130602;-41
2023/06/29 14:26:31;;;;;;;23.05;17.20;;;;;;;24.07;43.24;101288.19;16121272;19;130265;-44
2023/06/29 14:31:53;;;;;;;23.23;15.90;;;;;;;24.07;43.20;101277.00;16121084;19;129612;-43
2023/06/29 14:37:15;;;;;;;25.30;17.42;;;;;;;24.10;43.28;101270.88;16120620;19;134430;-45
2023/06/29 14:42:37;;;;;;;23.10;16.55;;;;;;;24.11;43.51;101269.75;16116644;19;129452;-43
2023/06/29 14:47:59;;;;;;;20.17;14.70;;;;;;;24.11;43.24;101269.75;16118051;19;130508;-45
2023/06/29 14:53:22;;;;;;;21.25;15.95;;;;;;;24.14;43.35;101276.75;16113744;19;131554;-42
2023/06/29 14:58:44;;;;;;;20.35;15.02;;;;;;;24.14;43.29;101274.78;16111849;19;130218;-44
2023/06/29 15:04:06;;;;;;;22.92;15.60;;;;;;;24.15;43.45;101279.25;16114515;19;130885;-42
2023/06/29 15:09:30;;;;;;;21.33;15.50;;;;;;;24.16;43.63;101275.34;16111059;19;130136;-44
2023/06/29 15:14:51;;;;;;;19.35;15.52;;;;;;;24.15;43.28;101262.47;16113708;19;130458;-41
2023/06/29 15:20:13;;;;;;;21.67;15.68;;;;;;;24.14;43.44;101262.75;16110979;19;129416;-46
2023/06/29 15:25:37;;;;;;;20.27;15.35;;;;;;;24.13;43.37;101259.13;16113951;19;129437;-45
2023/06/29 15:31:01;;;;;;;29.48;15.95;;;;;;;24.10;44.04;101263.31;16114898;19;130780;-46
2023/06/29 15:36:23;;;;;;;20.45;15.63;;;;;;;24.09;43.64;101258.81;16114598;19;130321;-47
2023/06/29 15:41:45;;;;;;;23.83;13.93;;;;;;;24.09;44.18;101258.00;16113590;19;131047;-42
2023/06/29 15:47:11;;;;;;;18.85;13.95;;;;;;;24.11;43.91;101250.19;16109575;19;129720;-46
2023/06/29 15:52:34;;;;;;;22.25;14.05;;;;;;;24.11;43.79;101255.78;16111308;19;131123;-45
2023/06/29 15:57:56;;;;;;;22.77;13.95;;;;;;;24.10;43.80;101263.31;16112223;19;130902;-43
2023/06/29 16:03:18;;;;;;;22.70;14.48;;;;;;;24.08;44.03;101268.31;16113779;19;130399;-45
2023/06/29 16:08:40;;;;;;;20.85;13.88;;;;;;;24.06;43.66;101264.97;16111632;19;129926;-42
2023/06/29 16:14:02;;;;;;;24.88;13.07;;;;;;;24.07;44.15;101271.41;16102071;19;130374;-47
2023/06/29 16:19:24;;;;;;;17.27;13.40;;;;;;;24.08;44.13;101267.50;16107625;19;129644;-40
2023/06/29 16:24:45;;;;;;;17.40;12.93;;;;;;;24.10;44.58;101259.69;16109274;19;129236;-44
2023/06/29 16:30:08;;;;;;;22.23;12.95;;;;;;;24.09;44.78;101261.63;16111564;19;130244;-46
2023/06/29 16:35:30;;;;;;;18.08;11.68;;;;;;;24.11;44.62;101267.78;16109055;19;131204;-43
2023/06/29 16:40:52;;;;;;;15.30;11.95;;;;;;;24.08;44.73;101273.09;16109343;19;130547;-44
2023/06/29 16:46:14;;;;;;;17.17;10.73;;;;;;;24.06;44.25;101269.72;16107824;19;130943;-44
2023/06/29 16:51:36;;;;;;;13.93;9.65;;;;;;;24.05;44.27;101279.22;16109093;19;129993;-46
2023/06/29 16:56:58;;;;;;;15.10;10.57;;;;;;;24.01;44.49;101287.31;16104988;19;130185;-44
2023/06/29 17:02:21;;;;;;;12.10;8.98;;;;;;;24.01;44.18;101278.09;16106314;19;130837;-48
2023/06/29 17:07:43;;;;;;;20.02;9.15;;;;;;;24.00;44.55;101277.25;16103866;19;130219;-42
2023/06/29 17:13:05;;;;;;;16.67;8.15;;;;;;;24.01;43.99;101272.50;16106495;19;130970;-45
2023/06/29 17:18:26;;;;;;;15.50;8.48;;;;;;;24.00;44.36;101279.22;16108864;19;131395;-43
2023/06/29 17:23:52;;;;;;;13.32;7.78;;;;;;;24.00;44.12;101287.59;16113297;19;129736;-47
2023/06/29 17:29:14;;;;;;;10.95;7.25;;;;;;;23.98;44.00;101296.25;16120581;19;129486;-44
2023/06/29 17:34:37;;;;;;;13.50;6.25;;;;;;;23.97;44.26;101294.56;16119625;19;131272;-46
2023/06/29 17:39:59;;;;;;;11.65;6.32;;;;;;;23.96;44.31;101304.91;16036613;19;130398;-46
2023/06/29 17:45:21;;;;;;;8.43;5.75;;;;;;;23.95;44.07;101308.81;16117919;19;129712;-49
2023/06/29 17:50:43;;;;;;;11.52;5.68;;;;;;;23.95;44.19;101320.00;16111288;19;130101;-45
2023/06/29 17:56:05;;;;;;;14.20;5.53;;;;;;;23.94;43.95;101329.50;16113121;19;129480;-44
2023/06/29 18:01:26;;;;;;;12.75;4.95;;;;;;;23.93;43.99;101344.56;16118488;19;131156;-45
2023/06/29 18:06:49;;;;;;;13.18;5.15;;;;;;;23.93;43.46;101354.94;16116924;19;130155;-45
2023/06/29 18:12:11;;;;;;;8.05;4.03;;;;;;;23.91;43.80;101345.97;16117916;19;130910;-50
2023/06/29 18:17:34;;;;;;;5.78;4.07;;;;;;;23.91;43.41;101348.78;16114447;19;129675;-44
2023/06/29 18:22:56;;;;;;;6.00;3.53;;;;;;;23.87;43.91;101331.72;16109984;19;130472;-42
2023/06/29 18:28:18;;;;;;;11.60;3.90;;;;;;;23.85;43.50;101339.53;16113409;19;131916;-43
2023/06/29 18:33:40;;;;;;;13.32;3.17;;;;;;;23.88;43.81;101360.47;16110864;19;130430;-46
2023/06/29 18:39:02;;;;;;;14.82;3.55;;;;;;;23.89;43.72;101367.75;16117692;19;130693;-49
2023/06/29 18:44:24;;;;;;;29.40;3.70;;;;;;;23.89;43.95;101374.16;16118445;19;131044;-44
2023/06/29 18:49:47;;;;;;;9.50;3.30;;;;;;;23.88;43.92;101371.66;16116749;19;129408;-47
2023/06/29 18:55:13;;;;;;;12.68;3.80;;;;;;;23.87;43.83;101373.63;16116567;19;129608;-42
2023/06/29 19:00:35;;;;;;;18.40;3.10;;;;;;;23.87;43.59;101373.63;16114063;19;130795;-42
2023/06/29 19:05:57;;;;;;;10.43;3.28;;;;;;;23.88;43.81;101380.03;16113084;19;130835;-43
2023/06/29 19:11:19;;;;;;;13.45;3.25;;;;;;;23.88;43.84;101391.22;16113198;19;130610;-46
2023/06/29 19:16:42;;;;;;;13.43;3.50;;;;;;;23.87;43.68;101384.81;16106698;19;130128;-42
2023/06/29 19:22:04;;;;;;;14.30;2.85;;;;;;;23.90;44.18;101400.19;16108493;19;130766;-41
2023/06/29 19:27:26;;;;;;;16.10;2.80;;;;;;;23.90;44.11;101405.75;16112833;19;130856;-41
2023/06/29 19:32:48;;;;;;;8.27;2.20;;;;;;;23.92;43.95;101407.16;16115033;19;130126;-44
2023/06/29 19:38:10;;;;;;;15.30;2.38;;;;;;;23.92;43.87;101420.31;16114137;19;131273;-41
2023/06/29 19:43:33;;;;;;;7.35;2.17;;;;;;;23.92;43.76;101432.31;16114052;19;130457;-44
2023/06/29 19:48:55;;;;;;;6.50;1.67;;;;;;;23.94;43.58;101435.69;16110202;19;135712;-42
2023/06/29 19:54:17;;;;;;;17.05;1.95;;;;;;;23.95;43.57;101445.75;16111588;19;129937;-41
2023/06/29 19:59:41;;;;;;;6.97;1.88;;;;;;;23.94;43.67;101446.88;16109359;19;129496;-40
2023/06/29 20:05:04;;;;;;;5.83;1.57;;;;;;;23.91;43.35;101455.78;16108745;19;130390;-45
2023/06/29 20:10:27;;;;;;;5.45;1.70;;;;;;;23.89;43.23;101449.63;16109756;19;130545;-42
2023/06/29 20:15:49;;;;;;;2.85;1.27;;;;;;;23.85;43.62;101454.06;16106939;19;130753;-44
2023/06/29 20:21:13;;;;;;;5.28;1.30;;;;;;;23.81;42.94;101453.78;16106717;19;129908;-46
2023/06/29 20:26:36;;;;;;;6.85;1.30;;;;;;;23.78;43.08;101447.88;16109370;19;130806;-44
2023/06/29 20:31:58;;;;;;;5.18;1.00;;;;;;;23.75;42.80;101454.00;16101336;19;129885;-42
2023/06/29 20:37:20;;;;;;;6.07;1.15;;;;;;;23.73;43.25;101454.25;16108091;19;129622;-43
2023/06/29 20:42:42;;;;;;;2.47;1.17;;;;;;;23.70;43.07;101449.22;16108931;19;129334;-43
2023/06/29 20:48:04;;;;;;;1.67;0.80;;;;;;;23.69;42.73;101452.28;16108293;19;131422;-41
2023/06/29 20:53:27;;;;;;;1.83;0.70;;;;;;;23.68;42.58;101447.81;16108656;19;130884;-47
2023/06/29 20:58:49;;;;;;;2.35;0.85;;;;;;;23.65;42.48;101450.00;16115640;19;131031;-42
2023/06/29 21:04:11;;;;;;;1.77;0.85;;;;;;;23.65;42.59;101463.97;16124815;19;130011;-44
2023/06/29 21:09:33;;;;;;;2.47;0.77;;;;;;;23.64;42.58;101476.25;16120256;19;131389;-42
2023/06/29 21:14:55;;;;;;;2.25;0.65;;;;;;;23.64;42.38;101479.06;16120299;19;130795;-40
2023/06/29 21:20:17;;;;;;;1.02;0.68;;;;;;;23.63;42.40;101477.38;16121733;19;130928;-42
2023/06/29 21:25:40;;;;;;;2.55;0.98;;;;;;;23.62;42.12;101472.91;16118287;19;129766;-41
2023/06/29 21:31:03;;;;;;;1.50;0.68;;;;;;;23.61;42.36;101459.19;16117378;19;129718;-44
2023/06/29 21:36:25;;;;;;;2.13;0.77;;;;;;;23.59;42.33;101445.50;16124618;19;130735;-46
2023/06/29 21:41:47;;;;;;;1.55;0.50;;;;;;;23.58;42.36;101449.41;16113179;19;130868;-44
2023/06/29 21:47:09;;;;;;;1.77;0.50;;;;;;;23.57;42.16;101456.06;16118279;19;130579;-41
2023/06/29 21:52:31;;;;;;;2.03;0.50;;;;;;;23.58;42.35;101455.00;16118917;19;130386;-41
2023/06/29 21:57:56;;;;;;;1.15;0.52;;;;;;;23.58;42.84;101456.91;16118196;19;130300;-42
2023/06/29 22:03:18;;;;;;;1.98;0.80;;;;;;;23.56;42.63;101453.56;16119865;19;129876;-43
2023/06/29 22:08:40;;;;;;;0.57;0.40;;;;;;;23.57;42.39;101466.44;16113495;19;132072;-41
2023/06/29 22:14:02;;;;;;;2.15;0.55;;;;;;;23.55;42.48;101461.09;16117973;19;130842;-43
2023/06/29 22:19:24;;;;;;;1.02;0.43;;;;;;;23.55;42.24;101465.84;16118688;19;129997;-44
2023/06/29 22:24:46;;;;;;;0.57;0.40;;;;;;;23.53;42.62;101449.34;16111943;19;131123;-43
2023/06/29 22:30:08;;;;;;;0.35;0.30;;;;;;;23.53;42.51;101452.13;16118304;19;130859;-42
2023/06/29 22:35:30;;;;;;;0.95;0.30;;;;;;;23.52;42.76;101461.59;16118085;19;133278;-42
2023/06/29 22:40:52;;;;;;;0.65;0.35;;;;;;;23.51;42.60;101459.94;16118215;19;131205;-42
2023/06/29 22:46:13;;;;;;;0.50;0.38;;;;;;;23.51;42.61;101459.94;16118307;19;131412;-43
2023/06/29 22:51:36;;;;;;;2.42;0.40;;;;;;;23.51;42.56;101460.78;16115375;19;131550;-42
2023/06/29 22:56:58;;;;;;;1.65;0.50;;;;;;;23.51;42.40;101459.94;16116409;19;131191;-45
2023/06/29 23:02:20;;;;;;;0.40;0.28;;;;;;;23.50;43.04;101463.84;16113148;19;130348;-47
2023/06/29 23:07:44;;;;;;;1.58;0.40;;;;;;;23.49;42.69;101456.59;16113286;19;131192;-49
2023/06/29 23:13:13;;;;;;;1.17;0.30;;;;;;;23.49;42.71;101462.16;16109751;19;130260;-43
2023/06/29 23:18:36;;;;;;;0.80;0.40;;;;;;;23.49;42.75;101451.00;16116432;19;129354;-41
2023/06/29 23:24:02;;;;;;;0.77;0.30;;;;;;;23.47;43.05;101442.03;16113035;19;130189;-46
2023/06/29 23:29:24;;;;;;;0.55;0.25;;;;;;;23.46;42.77;101452.34;16109523;19;131374;-40
2023/06/29 23:34:46;;;;;;;0.40;0.25;;;;;;;23.46;42.69;101448.72;16112746;19;130970;-41
2023/06/29 23:40:10;;;;;;;0.88;0.20;;;;;;;23.46;42.72;101440.34;16110959;19;129558;-45
2023/06/29 23:45:35;;;;;;;0.50;0.30;;;;;;;23.45;42.85;101433.09;16112102;19;129833;-48
2023/06/29 23:50:57;;;;;;;0.40;0.25;;;;;;;23.44;43.14;101429.47;16113852;19;129681;-43
2023/06/29 23:56:19;;;;;;;0.90;0.40;;;;;;;23.44;42.49;101436.97;16112409;19;130381;-47
